Time;durP1;ratioP1;P1;durP2;ratioP2;P2;SDS_P1;SDS_P2;PMS_P1;PMS_P2;Temp;Humidity;BMP_temperature;BMP_pressure;BME280_temperature;BME280_humidity;BME280_pressure;Samples;Min_cycle;Max_cycle;Signal;HPM_P1;HPM_P2
2023/03/18 00:00:08;;;;;;;17.77;11.60;;;10.00;99.90;;;;;;5059370;28;20143;-19
2023/03/18 00:02:35;;;;;;;17.88;11.82;;;10.00;99.90;;;;;;5077206;28;20128;-19
2023/03/18 00:05:03;;;;;;;16.05;11.60;;;9.90;99.90;;;;;;5075436;28;20043;-19
2023/03/18 00:07:29;;;;;;;16.33;10.70;;;9.90;99.90;;;;;;5076610;28;20048;-19
2023/03/18 00:09:55;;;;;;;17.23;10.82;;;9.90;99.90;;;;;;5076536;28;20129;-19
2023/03/18 00:12:20;;;;;;;19.23;12.15;;;9.90;99.90;;;;;;5077224;28;20080;-20
2023/03/18 00:14:46;;;;;;;20.30;12.13;;;9.90;99.90;;;;;;5075497;28;20048;-19
2023/03/18 00:17:12;;;;;;;17.25;11.20;;;9.90;99.90;;;;;;5076371;28;20063;-19
2023/03/18 00:19:38;;;;;;;16.27;11.52;;;9.90;99.90;;;;;;5076351;28;20044;-19
2023/03/18 00:22:04;;;;;;;17.42;10.15;;;9.90;99.90;;;;;;5075077;28;20089;-19
2023/03/18 00:24:30;;;;;;;16.75;11.27;;;10.00;99.90;;;;;;5075130;28;20048;-19
2023/03/18 00:26:56;;;;;;;18.08;11.45;;;10.00;99.90;;;;;;5076487;28;20051;-19
2023/03/18 00:29:23;;;;;;;16.30;10.48;;;10.00;99.90;;;;;;5058582;28;20080;-19
2023/03/18 00:31:50;;;;;;;22.50;11.95;;;10.00;99.90;;;;;;5076175;28;20036;-19
2023/03/18 00:34:17;;;;;;;16.52;10.88;;;10.00;99.90;;;;;;5076589;28;20145;-19
2023/03/18 00:36:44;;;;;;;17.95;11.10;;;10.00;99.90;;;;;;5074724;28;20136;-19
2023/03/18 00:39:12;;;;;;;16.35;11.05;;;10.00;99.90;;;;;;5058346;28;20048;-19
2023/03/18 00:41:38;;;;;;;17.15;11.43;;;10.00;99.90;;;;;;5075188;28;20052;-19
2023/03/18 00:44:04;;;;;;;16.40;10.40;;;10.00;99.90;;;;;;5074786;28;20044;-19
2023/03/18 00:46:33;;;;;;;15.40;10.63;;;10.00;99.90;;;;;;5075159;28;20048;-19
2023/03/18 00:49:01;;;;;;;15.52;11.63;;;10.10;99.90;;;;;;5076636;28;20071;-19
2023/03/18 00:51:30;;;;;;;16.63;11.02;;;10.10;99.90;;;;;;5076312;28;20070;-19
2023/03/18 00:53:59;;;;;;;18.02;11.20;;;10.20;99.90;;;;;;5075736;28;20090;-19
2023/03/18 00:56:27;;;;;;;15.48;10.38;;;10.20;99.90;;;;;;5075717;28;20044;-19
2023/03/18 00:58:53;;;;;;;16.98;10.15;;;10.30;99.90;;;;;;5075638;28;20048;-19
2023/03/18 01:01:20;;;;;;;18.35;11.00;;;10.30;99.90;;;;;;5075505;28;20056;-19
2023/03/18 01:03:50;;;;;;;16.23;10.55;;;10.30;99.90;;;;;;5075587;28;20127;-19
2023/03/18 01:06:22;;;;;;;21.65;12.52;;;10.30;99.90;;;;;;5057895;28;20078;-19
2023/03/18 01:08:50;;;;;;;18.00;11.70;;;10.20;99.90;;;;;;5075468;28;20086;-19
2023/03/18 01:11:16;;;;;;;18.70;11.32;;;10.30;99.90;;;;;;5074367;28;20402;-19
2023/03/18 01:13:43;;;;;;;19.90;12.98;;;10.30;99.90;;;;;;5075713;28;20067;-19
2023/03/18 01:16:09;;;;;;;20.42;12.98;;;10.30;99.90;;;;;;5075830;28;20050;-19
2023/03/18 01:18:36;;;;;;;26.58;12.85;;;10.40;99.90;;;;;;5075789;28;20414;-19
2023/03/18 01:21:03;;;;;;;22.95;13.73;;;10.40;99.90;;;;;;5075189;28;20041;-19
2023/03/18 01:23:29;;;;;;;22.02;14.10;;;10.40;99.90;;;;;;5075702;28;20091;-19
2023/03/18 01:25:58;;;;;;;20.75;14.00;;;10.40;99.90;;;;;;5074406;28;20049;-19
2023/03/18 01:28:23;;;;;;;18.60;12.68;;;10.40;99.90;;;;;;5075124;28;20056;-19
2023/03/18 01:30:49;;;;;;;25.17;15.52;;;10.40;99.90;;;;;;5075027;28;20098;-19
2023/03/18 01:33:16;;;;;;;21.77;15.07;;;10.20;99.90;;;;;;5074644;28;20056;-19
2023/03/18 01:35:42;;;;;;;23.20;14.45;;;9.90;99.90;;;;;;5074898;28;20119;-19
2023/03/18 01:38:08;;;;;;;29.30;16.02;;;9.60;99.90;;;;;;5073617;28;20060;-19
2023/03/18 01:40:39;;;;;;;23.35;15.32;;;9.30;99.90;;;;;;5075132;28;20085;-19
2023/03/18 01:43:15;;;;;;;23.55;14.85;;;9.10;99.90;;;;;;5074139;28;20041;-19
2023/03/18 01:45:52;;;;;;;22.55;16.00;;;9.00;99.90;;;;;;5075603;28;20344;-19
2023/03/18 01:48:20;;;;;;;21.48;15.85;;;9.00;99.90;;;;;;5074207;28;20045;-19
2023/03/18 01:50:54;;;;;;;22.42;16.60;;;8.90;99.90;;;;;;5075220;28;20093;-19
2023/03/18 01:53:21;;;;;;;25.92;16.90;;;8.90;99.90;;;;;;5075426;28;20090;-19
2023/03/18 01:55:49;;;;;;;26.98;20.27;;;8.90;99.90;;;;;;5075059;28;20059;-19
2023/03/18 01:58:20;;;;;;;27.60;18.25;;;9.00;99.90;;;;;;5074445;28;20123;-19
2023/03/18 02:00:57;;;;;;;23.35;16.83;;;9.10;99.90;;;;;;5074733;28;20402;-19
2023/03/18 02:03:26;;;;;;;29.05;19.02;;;9.00;99.90;;;;;;5075182;28;20171;-19
2023/03/18 02:05:52;;;;;;;31.70;21.48;;;8.90;99.90;;;;;;5074913;28;20083;-19
2023/03/18 02:08:19;;;;;;;30.73;22.20;;;8.90;99.90;;;;;;5073608;28;20177;-19
2023/03/18 02:10:45;;;;;;;29.08;22.50;;;8.80;99.90;;;;;;5073017;28;20050;-19
2023/03/18 02:13:13;;;;;;;35.60;25.17;;;8.80;99.90;;;;;;5073016;28;20129;-19
2023/03/18 02:16:06;;;;;;;31.10;22.63;;;8.80;99.90;;;;;;5074154;28;20387;-19
2023/03/18 02:18:44;;;;;;;34.63;24.23;;;8.80;99.90;;;;;;5074137;28;20060;-19
2023/03/18 02:21:25;;;;;;;35.95;24.83;;;8.60;99.90;;;;;;5074617;28;20048;-19
2023/03/18 02:23:57;;;;;;;38.35;26.75;;;8.50;99.90;;;;;;5057713;28;20091;-19
2023/03/18 02:26:31;;;;;;;40.45;29.13;;;8.40;99.90;;;;;;5074024;28;20083;-19
2023/03/18 02:29:02;;;;;;;40.85;29.63;;;8.20;99.90;;;;;;5073998;28;20048;-19
2023/03/18 02:31:29;;;;;;;42.50;29.45;;;8.10;99.90;;;;;;5073645;28;20473;-19
2023/03/18 02:33:56;;;;;;;39.83;28.90;;;8.00;99.90;;;;;;5072370;28;20114;-19
2023/03/18 02:36:27;;;;;;;38.55;27.88;;;8.00;99.90;;;;;;5056258;28;20106;-19
2023/03/18 02:38:53;;;;;;;45.58;32.25;;;8.00;99.90;;;;;;5056778;28;20040;-19
2023/03/18 02:41:22;;;;;;;43.28;30.60;;;8.00;99.90;;;;;;5074315;28;20094;-19
2023/03/18 02:43:49;;;;;;;45.13;31.15;;;8.00;99.90;;;;;;5072606;28;20048;-19
2023/03/18 02:46:38;;;;;;;41.00;29.98;;;8.00;99.90;;;;;;5074322;28;20483;-19
2023/03/18 02:49:06;;;;;;;47.05;32.38;;;8.00;99.90;;;;;;5073026;28;20055;-19
2023/03/18 02:51:34;;;;;;;45.72;32.72;;;7.80;99.90;;;;;;5073932;28;20154;-19
2023/03/18 02:54:07;;;;;;;44.47;31.45;;;7.70;99.90;;;;;;5073225;28;20063;-19
2023/03/18 02:56:33;;;;;;;43.17;30.95;;;7.80;99.90;;;;;;5073926;28;20559;-19
2023/03/18 02:58:59;;;;;;;47.22;32.60;;;7.80;99.90;;;;;;5073288;28;20483;-19
2023/03/18 03:01:25;;;;;;;49.85;31.38;;;8.00;99.90;;;;;;5072223;28;20044;-19
2023/03/18 03:03:51;;;;;;;43.88;32.55;;;8.10;99.90;;;;;;5074078;28;20044;-19
2023/03/18 03:06:17;;;;;;;48.47;33.88;;;8.20;99.90;;;;;;5073508;28;20102;-19
2023/03/18 03:08:43;;;;;;;45.08;32.38;;;8.20;99.90;;;;;;5073531;28;20391;-19
2023/03/18 03:11:10;;;;;;;49.85;33.63;;;8.10;99.90;;;;;;5073389;28;20091;-19
2023/03/18 03:13:41;;;;;;;48.05;33.25;;;8.00;99.90;;;;;;5073446;28;20040;-19
2023/03/18 03:16:08;;;;;;;52.15;35.42;;;7.80;99.90;;;;;;5056093;28;20135;-19
2023/03/18 03:18:34;;;;;;;46.05;32.50;;;7.70;99.90;;;;;;5055789;28;20079;-19
2023/03/18 03:21:00;;;;;;;46.15;34.70;;;7.60;99.90;;;;;;5073400;28;20123;-19
2023/03/18 03:23:27;;;;;;;52.70;34.22;;;7.50;99.90;;;;;;5073267;28;20041;-19
2023/03/18 03:25:53;;;;;;;54.67;37.65;;;7.40;99.90;;;;;;5073947;28;20059;-19
2023/03/18 03:28:19;;;;;;;54.70;39.35;;;7.40;99.90;;;;;;5055958;28;20048;-19
2023/03/18 03:30:44;;;;;;;56.05;39.70;;;7.40;99.90;;;;;;5073318;28;20131;-19
2023/03/18 03:33:11;;;;;;;57.42;41.63;;;7.40;99.90;;;;;;5073359;28;20049;-19
2023/03/18 03:35:38;;;;;;;64.03;42.35;;;7.40;99.90;;;;;;5074095;28;20052;-19
2023/03/18 03:38:04;;;;;;;59.25;40.55;;;7.50;99.90;;;;;;5073762;28;20052;-19
2023/03/18 03:40:29;;;;;;;67.20;44.67;;;7.50;99.90;;;;;;5055297;28;20048;-19
2023/03/18 03:42:55;;;;;;;63.83;43.88;;;7.60;99.90;;;;;;5073152;28;20041;-19
2023/03/18 03:45:21;;;;;;;63.03;43.00;;;7.60;99.90;;;;;;5073442;28;20040;-19
2023/03/18 03:47:48;;;;;;;69.38;44.05;;;7.70;99.90;;;;;;5072172;28;20047;-19
2023/03/18 03:50:15;;;;;;;68.03;45.30;;;7.70;99.90;;;;;;5073121;28;20048;-19
2023/03/18 03:52:42;;;;;;;63.50;41.45;;;7.70;99.90;;;;;;5073148;28;20067;-19
2023/03/18 03:55:11;;;;;;;61.83;42.80;;;7.60;99.90;;;;;;5072502;28;20121;-19
2023/03/18 03:57:37;;;;;;;66.97;45.53;;;7.60;99.90;;;;;;5073056;28;20040;-19
2023/03/18 04:00:06;;;;;;;71.50;46.22;;;7.60;99.90;;;;;;5073002;28;20048;-19
2023/03/18 04:02:32;;;;;;;64.53;45.97;;;7.60;99.90;;;;;;5072873;28;20047;-19
2023/03/18 04:04:59;;;;;;;73.93;44.38;;;7.60;99.90;;;;;;5071960;28;20556;-19
2023/03/18 04:07:25;;;;;;;71.68;46.58;;;7.60;99.90;;;;;;5073265;28;20048;-19
2023/03/18 04:09:51;;;;;;;66.03;44.30;;;7.60;99.90;;;;;;5072644;28;20392;-19
2023/03/18 04:12:18;;;;;;;76.38;48.38;;;7.60;99.90;;;;;;5073965;28;20051;-19
2023/03/18 04:14:45;;;;;;;63.15;42.70;;;7.70;99.90;;;;;;5075163;28;20114;-19
2023/03/18 04:17:12;;;;;;;67.22;46.20;;;7.80;99.90;;;;;;5075280;28;20102;-19
2023/03/18 04:19:38;;;;;;;68.13;47.83;;;7.80;99.90;;;;;;5076351;28;20048;-19
2023/03/18 04:22:05;;;;;;;68.00;45.55;;;8.00;99.90;;;;;;5076264;28;20039;-19
2023/03/18 04:24:31;;;;;;;65.95;44.13;;;7.90;99.90;;;;;;5075167;28;20048;-19
2023/03/18 04:26:57;;;;;;;65.60;45.60;;;7.80;99.90;;;;;;5076270;28;20044;-19
2023/03/18 04:29:24;;;;;;;65.60;43.70;;;7.90;99.90;;;;;;5076214;28;20055;-19
2023/03/18 04:31:49;;;;;;;63.42;43.33;;;7.90;99.90;;;;;;5076756;28;20123;-19
2023/03/18 04:34:15;;;;;;;62.15;42.30;;;7.90;99.90;;;;;;5075729;28;20144;-19
2023/03/18 04:36:41;;;;;;;62.28;42.53;;;8.00;99.90;;;;;;5076869;28;20048;-19
2023/03/18 04:39:08;;;;;;;64.72;41.80;;;8.00;99.90;;;;;;5076289;28;20049;-19
2023/03/18 04:41:36;;;;;;;63.08;42.92;;;8.10;99.90;;;;;;5076138;28;20052;-19
2023/03/18 04:44:02;;;;;;;65.85;43.10;;;8.00;99.90;;;;;;5076012;28;20055;-19
2023/03/18 04:46:30;;;;;;;65.63;42.65;;;8.00;99.90;;;;;;5058274;28;20131;-19
2023/03/18 04:48:57;;;;;;;59.40;41.03;;;8.00;99.90;;;;;;5058468;28;20155;-19
2023/03/18 04:51:24;;;;;;;62.78;40.70;;;8.10;99.90;;;;;;5074815;28;20497;-19
2023/03/18 04:53:50;;;;;;;57.83;40.38;;;8.20;99.90;;;;;;5075777;28;20044;-19
2023/03/18 04:56:17;;;;;;;59.72;39.45;;;8.20;99.90;;;;;;5075682;28;20418;-19
2023/03/18 04:58:43;;;;;;;61.33;40.78;;;8.20;99.90;;;;;;5075732;28;20052;-19
2023/03/18 05:01:09;;;;;;;57.40;39.53;;;8.20;99.90;;;;;;5075622;28;20183;-19
2023/03/18 05:03:35;;;;;;;67.60;44.10;;;8.10;99.90;;;;;;5075467;28;20041;-19
2023/03/18 05:06:01;;;;;;;68.43;42.92;;;8.00;99.90;;;;;;5075537;28;20129;-19
2023/03/18 05:08:27;;;;;;;73.78;41.63;;;7.90;99.90;;;;;;5075456;28;20554;-19
2023/03/18 05:10:53;;;;;;;73.57;44.85;;;7.70;99.90;;;;;;5074195;28;20080;-19
2023/03/18 05:13:19;;;;;;;73.57;45.25;;;7.60;99.90;;;;;;5074959;28;20131;-19
2023/03/18 05:15:45;;;;;;;67.80;43.70;;;7.50;99.90;;;;;;5073817;28;20053;-19
2023/03/18 05:18:11;;;;;;;75.05;46.20;;;7.50;99.90;;;;;;5075288;28;20052;-19
2023/03/18 05:20:38;;;;;;;76.03;48.40;;;7.60;99.90;;;;;;5057692;28;20063;-19
2023/03/18 05:23:04;;;;;;;70.60;46.10;;;7.50;99.90;;;;;;5074827;28;20099;-19
2023/03/18 05:25:30;;;;;;;88.47;48.80;;;7.60;99.90;;;;;;5074658;28;20052;-19
2023/03/18 05:27:56;;;;;;;78.88;49.13;;;7.60;99.90;;;;;;5075110;28;20132;-19
2023/03/18 05:30:22;;;;;;;78.20;44.78;;;7.80;99.90;;;;;;5057672;28;20139;-19
2023/03/18 05:32:48;;;;;;;69.78;40.33;;;7.80;99.90;;;;;;5075072;28;20084;-19
2023/03/18 05:35:14;;;;;;;77.53;45.53;;;8.10;99.90;;;;;;5076175;28;20117;-19
2023/03/18 05:37:42;;;;;;;78.07;45.72;;;8.10;99.90;;;;;;5074889;28;20044;-19
2023/03/18 05:40:10;;;;;;;78.00;44.10;;;8.30;99.90;;;;;;5057341;28;20048;-19
2023/03/18 05:42:37;;;;;;;78.78;44.83;;;8.20;99.90;;;;;;5074692;28;20080;-19
2023/03/18 05:45:04;;;;;;;86.63;43.83;;;8.30;99.90;;;;;;5074468;28;20418;-19
2023/03/18 05:47:30;;;;;;;84.03;43.35;;;8.30;99.90;;;;;;5073993;28;20057;-19
2023/03/18 05:49:56;;;;;;;69.75;34.58;;;8.40;99.90;;;;;;5073699;28;20048;-19
2023/03/18 05:52:22;;;;;;;76.70;37.83;;;8.60;99.90;;;;;;5075135;28;20041;-19
2023/03/18 05:54:49;;;;;;;96.45;40.88;;;8.60;99.90;;;;;;5074770;28;20122;-19
2023/03/18 05:57:15;;;;;;;92.70;39.45;;;8.70;99.90;;;;;;5075255;28;20052;-19
2023/03/18 05:59:42;;;;;;;90.90;38.85;;;8.60;99.90;;;;;;5074456;28;20056;-19
2023/03/18 06:02:09;;;;;;;83.75;36.13;;;8.70;99.90;;;;;;5074394;28;20041;-19
2023/03/18 06:04:35;;;;;;;95.97;39.75;;;8.60;99.90;;;;;;5073177;28;20048;-19
2023/03/18 06:07:02;;;;;;;86.68;37.05;;;8.70;99.90;;;;;;5074838;28;20423;-19
2023/03/18 06:09:28;;;;;;;85.40;35.28;;;8.90;99.90;;;;;;5056390;28;20055;-19
2023/03/18 06:11:54;;;;;;;93.00;36.08;;;8.80;99.90;;;;;;5074125;28;20055;-19
2023/03/18 06:14:20;;;;;;;114.82;39.78;;;8.90;99.90;;;;;;5073046;28;20040;-19
2023/03/18 06:16:46;;;;;;;94.32;37.30;;;8.80;99.90;;;;;;5074188;28;20063;-19
2023/03/18 06:19:12;;;;;;;100.22;38.72;;;8.90;99.90;;;;;;5073470;28;20050;-19
2023/03/18 06:21:39;;;;;;;112.57;40.40;;;8.90;99.90;;;;;;5073997;28;20045;-19
2023/03/18 06:24:05;;;;;;;106.38;40.38;;;8.80;99.90;;;;;;5074016;28;20052;-19
2023/03/18 06:26:31;;;;;;;110.18;42.05;;;8.80;99.90;;;;;;5073898;28;20123;-19
2023/03/18 06:28:58;;;;;;;111.20;40.50;;;8.80;99.90;;;;;;5074083;28;20504;-19
2023/03/18 06:31:24;;;;;;;131.63;45.20;;;8.80;99.90;;;;;;5073760;28;20419;-19
2023/03/18 06:33:51;;;;;;;111.15;41.85;;;8.90;99.90;;;;;;5073317;28;20048;-19
2023/03/18 06:36:16;;;;;;;129.75;46.63;;;8.90;99.90;;;;;;5072350;28;20048;-19
2023/03/18 06:38:43;;;;;;;120.75;46.13;;;8.80;99.90;;;;;;5073690;28;20040;-19
2023/03/18 06:41:10;;;;;;;124.28;46.38;;;8.90;99.90;;;;;;5073348;28;20494;-19
2023/03/18 06:43:36;;;;;;;130.55;46.58;;;8.90;99.90;;;;;;5072292;28;20131;-19
2023/03/18 06:46:02;;;;;;;122.78;46.10;;;8.90;99.90;;;;;;5074109;28;20131;-19
2023/03/18 06:48:28;;;;;;;118.00;43.78;;;8.80;99.90;;;;;;5073594;28;20066;-19
2023/03/18 06:50:54;;;;;;;124.38;44.88;;;8.80;99.90;;;;;;5073718;28;20106;-19
2023/03/18 06:53:19;;;;;;;121.10;44.65;;;8.80;99.90;;;;;;5073524;28;20098;-19
2023/03/18 06:55:45;;;;;;;124.22;45.47;;;8.80;99.90;;;;;;5073517;28;20053;-19
2023/03/18 06:58:11;;;;;;;105.68;45.33;;;8.80;99.90;;;;;;5072809;28;20479;-19
2023/03/18 07:00:40;;;;;;;114.90;46.13;;;8.80;99.90;;;;;;5072284;28;20044;-19
2023/03/18 07:03:06;;;;;;;112.95;45.17;;;8.80;99.90;;;;;;5073507;28;20401;-19
2023/03/18 07:05:32;;;;;;;108.32;45.65;;;8.90;99.90;;;;;;5055846;28;20048;-19
2023/03/18 07:07:57;;;;;;;100.45;45.83;;;9.00;99.90;;;;;;5072564;28;20051;-19
2023/03/18 07:10:28;;;;;;;94.28;45.40;;;9.10;99.90;;;;;;5073422;28;20124;-19
2023/03/18 07:12:54;;;;;;;89.18;44.42;;;9.30;99.90;;;;;;5072227;28;20051;-19
2023/03/18 07:15:22;;;;;;;82.47;42.45;;;9.40;99.90;;;;;;5073474;28;20045;-19
2023/03/18 07:17:51;;;;;;;101.78;45.83;;;9.50;99.90;;;;;;5073728;28;20049;-19
2023/03/18 07:20:17;;;;;;;78.38;42.85;;;9.50;99.90;;;;;;5073069;28;20494;-19
2023/03/18 07:22:44;;;;;;;80.38;41.92;;;9.50;99.90;;;;;;5073852;28;20047;-19
2023/03/18 07:25:10;;;;;;;76.18;42.15;;;9.50;99.90;;;;;;5072672;28;20045;-19
2023/03/18 07:27:36;;;;;;;76.53;39.55;;;9.50;99.90;;;;;;5066986;28;20380;-19
2023/03/18 07:30:02;;;;;;;78.68;44.78;;;9.60;99.90;;;;;;5054713;28;20045;-19
2023/03/18 07:32:29;;;;;;;72.55;40.63;;;9.60;99.90;;;;;;5058430;28;20063;-19
2023/03/18 07:34:56;;;;;;;73.32;44.42;;;9.70;99.90;;;;;;5071664;28;20482;-19
2023/03/18 07:37:22;;;;;;;64.15;40.58;;;9.80;99.90;;;;;;5073751;28;20050;-19
2023/03/18 07:39:48;;;;;;;69.68;40.58;;;9.90;99.90;;;;;;5068340;28;20049;-19
2023/03/18 07:42:14;;;;;;;62.55;38.42;;;9.90;99.90;;;;;;5064647;28;20166;-19
2023/03/18 07:44:40;;;;;;;57.20;37.13;;;10.00;99.90;;;;;;5066206;28;20041;-19
2023/03/18 07:47:06;;;;;;;57.53;36.28;;;10.10;99.90;;;;;;5072287;28;20563;-19
2023/03/18 07:49:32;;;;;;;63.97;39.88;;;10.10;99.90;;;;;;5077001;28;20602;-19
2023/03/18 07:51:58;;;;;;;57.97;36.50;;;10.20;99.90;;;;;;5065073;28;20107;-19
2023/03/18 07:54:24;;;;;;;59.22;36.55;;;10.30;99.90;;;;;;5059224;28;20105;-19
2023/03/18 07:56:50;;;;;;;53.20;36.42;;;10.30;99.90;;;;;;5056253;28;20123;-19
2023/03/18 07:59:17;;;;;;;52.28;34.42;;;10.40;99.90;;;;;;5056652;28;20049;-19
2023/03/18 08:01:43;;;;;;;50.63;34.63;;;10.40;99.90;;;;;;5056881;28;20087;-19
2023/03/18 08:04:10;;;;;;;50.55;34.88;;;10.50;99.90;;;;;;5056620;28;20052;-19
2023/03/18 08:06:36;;;;;;;49.80;32.50;;;10.50;99.90;;;;;;5056902;28;20059;-19
2023/03/18 08:09:03;;;;;;;54.25;34.22;;;10.60;99.90;;;;;;5056556;28;20060;-19
2023/03/18 08:11:29;;;;;;;48.40;33.13;;;10.70;99.90;;;;;;5056448;28;20056;-19
2023/03/18 08:13:55;;;;;;;49.45;35.63;;;10.80;99.90;;;;;;5055313;28;20044;-19
2023/03/18 08:16:20;;;;;;;42.58;32.15;;;11.00;99.90;;;;;;5056145;28;20057;-19
2023/03/18 08:18:46;;;;;;;42.67;31.33;;;11.00;99.90;;;;;;5056351;28;20049;-19
2023/03/18 08:21:12;;;;;;;41.90;30.15;;;11.10;99.90;;;;;;5056615;28;20053;-19
2023/03/18 08:23:38;;;;;;;45.17;33.63;;;11.10;99.90;;;;;;5056208;28;20041;-19
2023/03/18 08:26:04;;;;;;;42.30;30.17;;;11.10;99.90;;;;;;5055091;28;20049;-19
2023/03/18 08:28:30;;;;;;;44.20;31.77;;;11.10;99.90;;;;;;5056780;28;20471;-19
2023/03/18 08:30:58;;;;;;;38.78;27.88;;;11.10;99.90;;;;;;5056686;28;20102;-19
2023/03/18 08:33:26;;;;;;;42.95;29.88;;;11.00;99.90;;;;;;5054772;28;20207;-19
2023/03/18 08:35:56;;;;;;;44.08;29.63;;;11.10;99.90;;;;;;5054981;28;20049;-19
2023/03/18 08:38:23;;;;;;;41.78;30.42;;;11.10;99.90;;;;;;5056680;28;20053;-19
2023/03/18 08:40:50;;;;;;;43.25;28.65;;;11.20;99.90;;;;;;5055979;28;20044;-19
2023/03/18 08:43:16;;;;;;;38.90;29.88;;;11.20;99.90;;;;;;5054705;28;20056;-19
2023/03/18 08:45:42;;;;;;;41.33;27.75;;;11.20;99.90;;;;;;5055909;28;20533;-19
2023/03/18 08:48:09;;;;;;;38.42;28.15;;;11.30;99.90;;;;;;5055860;28;20053;-19
2023/03/18 08:50:35;;;;;;;34.75;27.63;;;11.30;99.90;;;;;;5055752;28;20049;-19
2023/03/18 08:53:03;;;;;;;39.58;27.20;;;11.40;99.90;;;;;;5055769;28;20131;-19
2023/03/18 08:55:31;;;;;;;42.03;28.73;;;11.30;99.90;;;;;;5056827;28;20103;-19
2023/03/18 08:57:58;;;;;;;36.30;26.95;;;11.40;99.90;;;;;;5056302;28;20356;-20
2023/03/18 09:00:24;;;;;;;43.67;28.05;;;11.30;99.90;;;;;;5055956;28;20586;-19
2023/03/18 09:02:51;;;;;;;38.28;28.77;;;11.30;99.90;;;;;;5055542;28;20116;-19
2023/03/18 09:05:18;;;;;;;37.55;28.35;;;11.30;99.90;;;;;;5055582;28;20139;-19
2023/03/18 09:07:44;;;;;;;38.22;27.83;;;11.40;99.90;;;;;;5055534;28;20091;-19
2023/03/18 09:10:13;;;;;;;40.20;26.48;;;11.40;99.90;;;;;;5037639;28;20088;-19
2023/03/18 09:12:41;;;;;;;34.60;26.75;;;11.40;99.90;;;;;;5054309;28;20455;-20
2023/03/18 09:15:09;;;;;;;36.72;27.17;;;11.40;99.90;;;;;;5056145;28;20060;-20
2023/03/18 09:17:40;;;;;;;36.58;27.52;;;11.40;99.90;;;;;;5055857;28;20090;-20
2023/03/18 09:20:08;;;;;;;34.75;25.25;;;11.50;99.90;;;;;;5055320;28;20048;-20
2023/03/18 09:22:35;;;;;;;35.75;26.30;;;11.60;99.90;;;;;;5055431;28;20049;-19
2023/03/18 09:25:01;;;;;;;34.97;26.02;;;11.60;99.90;;;;;;5055245;28;20127;-20
2023/03/18 09:27:27;;;;;;;34.90;27.63;;;11.70;99.90;;;;;;5055094;28;20049;-19
2023/03/18 09:29:53;;;;;;;34.55;24.50;;;11.70;99.90;;;;;;5055073;28;20055;-19
2023/03/18 09:32:18;;;;;;;30.77;25.83;;;11.70;99.90;;;;;;5055310;28;20387;-20
2023/03/18 09:34:45;;;;;;;35.78;24.50;;;11.70;99.90;;;;;;5053493;28;20057;-20
2023/03/18 09:37:12;;;;;;;35.63;26.67;;;11.70;99.90;;;;;;5055231;28;20059;-20
2023/03/18 09:39:39;;;;;;;35.00;25.92;;;11.70;99.90;;;;;;5055479;28;20232;-19
2023/03/18 09:42:41;;;;;;;36.63;27.63;;;11.80;99.90;;;;;;5054767;28;20136;-19
2023/03/18 09:45:45;;;;;;;39.58;25.77;;;11.90;99.90;;;;;;5055277;28;20132;-20
2023/03/18 09:48:30;;;;;;;35.10;25.45;;;12.00;99.90;;;;;;5047023;28;20075;-20
2023/03/18 09:51:13;;;;;;;36.10;26.02;;;12.20;99.90;;;;;;5054737;28;20053;-20
2023/03/18 09:53:47;;;;;;;33.47;24.85;;;12.40;99.90;;;;;;5055507;28;20045;-20
2023/03/18 09:56:22;;;;;;;31.98;23.88;;;12.80;99.90;;;;;;5054886;28;20056;-20
2023/03/18 09:59:02;;;;;;;33.08;23.23;;;13.00;99.90;;;;;;5037271;28;20499;-19
2023/03/18 10:01:31;;;;;;;34.25;23.52;;;13.10;99.90;;;;;;5055015;28;20049;-19
2023/03/18 10:04:06;;;;;;;31.92;23.08;;;13.20;99.90;;;;;;5054403;28;20048;-19
2023/03/18 10:06:34;;;;;;;28.88;22.98;;;13.80;99.90;;;;;;5054445;28;20049;-19
2023/03/18 10:09:03;;;;;;;28.90;21.48;;;14.00;99.90;;;;;;5054402;28;20387;-20
2023/03/18 10:11:52;;;;;;;29.63;20.60;;;14.40;99.90;;;;;;5053732;28;20053;-20
2023/03/18 10:14:37;;;;;;;27.60;21.25;;;15.00;99.90;;;;;;5053323;28;20556;-20
2023/03/18 10:17:15;;;;;;;27.27;20.73;;;15.60;99.90;;;;;;5055058;28;20375;-20
2023/03/18 10:19:49;;;;;;;31.08;22.33;;;15.60;99.90;;;;;;5052978;28;20475;-20
2023/03/18 10:22:18;;;;;;;23.83;18.88;;;15.50;99.90;;;;;;5054099;28;20076;-20
2023/03/18 10:25:04;;;;;;;27.52;19.90;;;15.60;99.90;;;;;;5053063;28;20087;-20
2023/03/18 10:27:39;;;;;;;23.80;18.00;;;16.20;99.90;;;;;;5032255;28;20059;-20
2023/03/18 10:30:21;;;;;;;23.20;18.85;;;16.60;99.90;;;;;;5053992;28;20136;-20
2023/03/18 10:33:05;;;;;;;25.42;18.00;;;16.90;99.90;;;;;;5037171;28;20106;-20
2023/03/18 10:35:42;;;;;;;19.88;15.45;;;16.70;99.90;;;;;;5052866;28;20056;-21
2023/03/18 10:38:41;;;;;;;16.90;13.98;;;16.60;99.90;;;;;;5053938;28;20123;-20
2023/03/18 10:41:19;;;;;;;23.13;14.70;;;16.10;99.90;;;;;;5054327;28;20128;-20
2023/03/18 10:43:48;;;;;;;24.17;17.08;;;15.80;99.90;;;;;;5054496;28;20041;-20
2023/03/18 10:46:16;;;;;;;20.08;14.48;;;16.10;99.90;;;;;;5054511;28;20045;-20
2023/03/18 10:48:47;;;;;;;22.85;15.85;;;16.20;99.90;;;;;;5054200;28;20047;-21
2023/03/18 10:51:25;;;;;;;21.73;15.35;;;16.60;99.90;;;;;;5053708;28;20048;-20
2023/03/18 10:54:08;;;;;;;21.13;16.67;;;15.90;99.90;;;;;;5052109;28;20056;-20
2023/03/18 10:56:34;;;;;;;;;;;15.40;99.90;;;;;;5054095;28;20063;-20
2023/03/18 10:59:00;;;;;;;17.60;12.80;;;15.00;99.90;;;;;;5053577;28;19920;-21
2023/03/18 11:01:28;;;;;;;21.05;14.80;;;14.70;99.90;;;;;;5054320;28;20049;-20
2023/03/18 11:04:05;;;;;;;19.80;15.10;;;14.70;99.90;;;;;;5054118;28;20057;-20
2023/03/18 11:06:38;;;;;;;22.13;15.93;;;14.60;99.90;;;;;;5053892;28;20060;-20
2023/03/18 11:09:21;;;;;;;19.00;13.70;;;14.60;99.90;;;;;;5054118;28;20053;-20
2023/03/18 11:11:49;;;;;;;14.90;11.80;;;14.70;99.90;;;;;;5053328;28;20041;-20
2023/03/18 11:14:19;;;;;;;21.55;13.30;;;14.60;99.90;;;;;;5052459;28;20060;-20
2023/03/18 11:16:48;;;;;;;21.95;14.20;;;14.70;99.90;;;;;;5052205;28;20080;-20
2023/03/18 11:19:28;;;;;;;19.70;13.95;;;14.80;99.90;;;;;;5052123;28;20053;-20
2023/03/18 11:22:18;;;;;;;24.15;12.82;;;14.60;99.90;;;;;;5056256;28;20098;-20
2023/03/18 11:24:43;;;;;;;16.13;10.65;;;14.90;99.90;;;;;;5057831;28;20464;-20
2023/03/18 11:27:15;;;;;;;16.45;11.55;;;15.00;99.90;;;;;;5057143;28;20077;-20
2023/03/18 11:30:20;;;;;;;13.10;9.93;;;15.10;99.90;;;;;;5057380;28;20076;-20
2023/03/18 11:33:00;;;;;;;15.90;9.63;;;15.00;99.90;;;;;;5057338;28;20048;-20
2023/03/18 11:35:46;;;;;;;14.40;9.70;;;15.40;99.90;;;;;;5055636;28;20045;-20
2023/03/18 11:38:27;;;;;;;12.43;8.40;;;15.60;99.90;;;;;;5057762;28;20126;-20
2023/03/18 11:41:15;;;;;;;10.98;6.55;;;15.90;99.90;;;;;;5057177;28;20090;-20
2023/03/18 11:44:04;;;;;;;12.45;8.50;;;16.20;99.90;;;;;;5057076;28;20041;-20
2023/03/18 11:46:44;;;;;;;15.88;10.02;;;16.60;99.90;;;;;;5056113;28;20049;-21
2023/03/18 11:49:16;;;;;;;14.60;9.48;;;16.20;99.90;;;;;;5039923;28;20064;-20
2023/03/18 11:51:45;;;;;;;11.30;8.60;;;15.70;99.90;;;;;;5055727;28;20049;-20
2023/03/18 11:54:32;;;;;;;13.88;9.32;;;15.50;99.90;;;;;;5056826;28;20103;-20
2023/03/18 11:57:20;;;;;;;16.27;10.70;;;15.40;99.90;;;;;;5056888;28;20084;-20
2023/03/18 12:00:24;;;;;;;14.32;11.55;;;15.30;99.90;;;;;;5057687;28;20087;-20
2023/03/18 12:03:14;;;;;;;13.65;10.73;;;15.20;99.90;;;;;;5056728;28;20041;-30
2023/03/18 12:05:50;;;;;;;13.05;10.85;;;15.20;99.90;;;;;;5057558;28;20049;-20
2023/03/18 12:08:38;;;;;;;13.23;10.52;;;15.30;99.90;;;;;;5056676;28;20045;-20
2023/03/18 12:11:18;;;;;;;18.33;10.85;;;15.80;99.90;;;;;;5056884;28;20056;-20
2023/03/18 12:13:52;;;;;;;16.67;11.23;;;16.20;99.90;;;;;;5056556;28;20045;-22
2023/03/18 12:16:44;;;;;;;13.75;10.45;;;16.30;99.90;;;;;;5055321;28;20075;-21
2023/03/18 12:19:16;;;;;;;14.93;10.65;;;16.40;99.90;;;;;;5059200;28;20036;-20
2023/03/18 12:22:07;;;;;;;16.02;11.52;;;16.10;99.90;;;;;;5056108;28;20053;-21
2023/03/18 12:25:10;;;;;;;13.88;10.20;;;15.80;99.90;;;;;;5055535;28;20085;-21
2023/03/18 12:27:58;;;;;;;14.57;11.05;;;15.70;99.90;;;;;;5056321;28;20044;-21
2023/03/18 12:30:29;;;;;;;14.45;10.60;;;16.20;99.90;;;;;;5071956;28;20132;-21
2023/03/18 12:33:22;;;;;;;16.17;10.73;;;16.90;99.90;;;;;;5055512;28;20057;-21
2023/03/18 12:36:36;;;;;;;13.52;10.23;;;16.90;99.90;;;;;;5071287;28;20067;-21
2023/03/18 12:39:17;;;;;;;15.10;9.88;;;16.40;99.90;;;;;;5054413;28;20053;-21
2023/03/18 12:41:44;;;;;;;12.27;9.05;;;16.30;99.90;;;;;;5055679;28;20530;-21
2023/03/18 12:44:34;;;;;;;11.45;10.20;;;17.00;99.90;;;;;;5038079;28;20086;-21
2023/03/18 12:47:14;;;;;;;14.23;9.73;;;17.00;99.90;;;;;;5056558;28;20052;-21